createdAt,value
2022-08-16T00:01:34.213Z,22.74
2022-08-16T00:04:10.560Z,22.70
2022-08-16T00:06:53.174Z,22.65
2022-08-16T00:09:26.718Z,22.64
2022-08-16T00:12:17.814Z,22.60
2022-08-16T00:15:05.531Z,22.55
2022-08-16T00:17:56.003Z,22.47
2022-08-16T00:20:25.040Z,22.49
2022-08-16T00:22:52.191Z,22.50
2022-08-16T00:26:33.364Z,22.44
2022-08-16T00:28:09.207Z,22.48
2022-08-16T00:30:38.323Z,22.23
2022-08-16T00:33:06.167Z,22.21
2022-08-16T00:35:37.513Z,22.21
2022-08-16T00:38:43.312Z,22.27
2022-08-16T00:40:54.810Z,22.17
2022-08-16T00:43:40.790Z,22.16
2022-08-16T00:46:35.512Z,22.08
2022-08-16T00:49:17.618Z,22.13
2022-08-16T00:51:46.267Z,22.14
2022-08-16T00:54:13.333Z,22.13
2022-08-16T00:56:58.480Z,22.05
2022-08-16T00:59:29.001Z,22.03
2022-08-16T01:01:56.154Z,22.01
2022-08-16T01:04:30.056Z,22.10
2022-08-16T01:07:01.744Z,22.03
2022-08-16T01:09:33.831Z,22.03
2022-08-16T01:12:03.205Z,21.98
2022-08-16T01:14:32.863Z,21.97
2022-08-16T01:16:59.849Z,21.98
2022-08-16T01:19:34.894Z,21.91
2022-08-16T01:22:48.140Z,21.70
2022-08-16T01:25:06.759Z,21.66
2022-08-16T01:27:39.193Z,21.59
2022-08-16T01:30:20.084Z,21.63
2022-08-16T01:33:01.166Z,21.65
2022-08-16T01:35:35.365Z,21.52
2022-08-16T01:38:19.732Z,21.48
2022-08-16T01:40:47.812Z,21.44
2022-08-16T01:43:14.666Z,21.48
2022-08-16T01:45:43.339Z,21.52
2022-08-16T01:48:19.810Z,21.58
2022-08-16T01:51:09.680Z,21.74
2022-08-16T01:53:36.467Z,21.73
2022-08-16T01:56:07.483Z,21.80
2022-08-16T01:58:50.287Z,21.78
2022-08-16T02:01:18.149Z,21.58
2022-08-16T02:03:45.184Z,21.76
2022-08-16T02:06:33.783Z,21.73
2022-08-16T02:09:02.440Z,21.76
2022-08-16T02:11:48.871Z,21.59
2022-08-16T02:14:21.639Z,21.59
2022-08-16T02:16:48.551Z,21.53
2022-08-16T02:19:17.534Z,21.43
2022-08-16T02:22:08.943Z,21.53
2022-08-16T02:24:41.997Z,21.42
2022-08-16T02:27:12.589Z,21.46
2022-08-16T02:29:41.254Z,21.48
2022-08-16T02:32:50.678Z,21.48
2022-08-16T02:34:57.231Z,21.35
2022-08-16T02:37:23.762Z,21.33
2022-08-16T02:40:12.058Z,21.22
2022-08-16T02:42:45.191Z,21.27
2022-08-16T02:45:12.611Z,20.95
2022-08-16T02:48:01.367Z,20.93
2022-08-16T02:50:54.376Z,21.04
2022-08-16T02:53:12.944Z,21.12
2022-08-16T02:55:41.332Z,21.00
2022-08-16T02:58:08.661Z,21.08
2022-08-16T03:00:36.160Z,21.11
2022-08-16T03:03:04.566Z,21.14
2022-08-16T03:05:37.163Z,21.06
2022-08-16T03:08:05.267Z,20.86
2022-08-16T03:10:52.773Z,20.62
2022-08-16T03:13:20.638Z,20.55
2022-08-16T03:15:49.569Z,20.31
2022-08-16T03:18:34.250Z,20.46
2022-08-16T03:21:04.338Z,20.56
2022-08-16T03:23:35.569Z,20.57
2022-08-16T03:26:02.731Z,20.70
2022-08-16T03:28:29.245Z,20.61
2022-08-16T03:30:56.924Z,20.64
2022-08-16T03:33:23.892Z,20.64
2022-08-16T03:35:57.175Z,20.66
2022-08-16T03:38:34.445Z,20.67
2022-08-16T03:41:03.350Z,20.65
2022-08-16T03:43:51.085Z,20.56
2022-08-16T03:46:44.383Z,20.42
2022-08-16T03:49:10.728Z,20.44
2022-08-16T03:51:40.303Z,20.49
2022-08-16T03:54:10.371Z,20.50
2022-08-16T03:56:39.489Z,20.49
2022-08-16T03:59:24.060Z,20.55
2022-08-16T04:01:53.612Z,20.62
2022-08-16T04:04:32.617Z,20.62
2022-08-16T04:07:03.366Z,20.66
2022-08-16T04:09:35.381Z,20.61
2022-08-16T04:12:11.246Z,20.60
2022-08-16T04:14:51.715Z,20.58
2022-08-16T04:17:18.441Z,20.53
2022-08-16T04:19:46.582Z,20.56
2022-08-16T04:22:13.781Z,20.56
2022-08-16T04:24:43.746Z,20.57
2022-08-16T04:27:21.107Z,20.35
2022-08-16T04:29:47.593Z,20.27
2022-08-16T04:32:19.633Z,20.23
2022-08-16T04:34:47.005Z,20.27
2022-08-16T04:37:14.545Z,20.25
2022-08-16T04:39:46.938Z,20.23
2022-08-16T04:42:25.808Z,20.41
2022-08-16T04:44:55.482Z,20.28
2022-08-16T04:47:33.471Z,20.22
2022-08-16T04:50:14.438Z,20.11
2022-08-16T04:52:44.294Z,20.11
2022-08-16T04:55:15.763Z,20.16
2022-08-16T04:57:44.218Z,20.20
2022-08-16T05:00:31.041Z,20.18
2022-08-16T05:03:02.918Z,20.08
2022-08-16T05:05:55.560Z,20.00
2022-08-16T05:08:27.961Z,20.01
2022-08-16T05:11:05.209Z,19.99
2022-08-16T05:13:40.277Z,20.10
2022-08-16T05:16:12.036Z,20.35
2022-08-16T05:18:47.973Z,20.47
2022-08-16T05:21:14.831Z,20.36
2022-08-16T05:23:43.422Z,20.53
2022-08-16T05:26:19.882Z,20.60
2022-08-16T05:28:55.615Z,20.80
2022-08-16T05:31:23.967Z,20.98
2022-08-16T05:33:56.746Z,21.04
2022-08-16T05:36:23.282Z,21.07
2022-08-16T05:39:01.329Z,21.18
2022-08-16T05:41:29.186Z,21.28
2022-08-16T05:44:00.213Z,21.31
2022-08-16T05:46:32.061Z,21.42
2022-08-16T05:49:05.849Z,21.49
2022-08-16T05:51:38.456Z,21.69
2022-08-16T05:54:06.008Z,21.77
2022-08-16T05:56:32.530Z,21.85
2022-08-16T05:59:00.769Z,21.92
2022-08-16T06:01:28.079Z,22.02
2022-08-16T06:03:59.701Z,22.02
2022-08-16T06:06:28.954Z,22.07
2022-08-16T06:08:55.869Z,21.97
2022-08-16T06:11:22.389Z,21.84
2022-08-16T06:13:52.183Z,21.78
2022-08-16T06:16:22.207Z,21.99
2022-08-16T06:18:53.724Z,22.00
2022-08-16T06:21:22.733Z,21.92
2022-08-16T06:23:51.120Z,21.85
2022-08-16T06:26:21.552Z,21.81
2022-08-16T06:28:48.215Z,22.08
2022-08-16T06:31:16.755Z,22.24
2022-08-16T06:33:44.631Z,22.26
2022-08-16T06:36:14.195Z,22.30
2022-08-16T06:38:55.805Z,22.47
2022-08-16T06:41:24.305Z,22.59
2022-08-16T06:43:54.210Z,22.71
2022-08-16T06:46:31.753Z,22.67
2022-08-16T06:48:59.446Z,22.75
2022-08-16T06:51:26.012Z,22.93
2022-08-16T06:54:14.265Z,22.80
2022-08-16T06:56:42.415Z,22.87
2022-08-16T06:59:09.322Z,22.85
2022-08-16T07:01:46.239Z,22.94
2022-08-16T07:04:31.650Z,22.85
2022-08-16T07:06:59.674Z,22.78
2022-08-16T07:09:26.333Z,22.87
2022-08-16T07:11:56.407Z,22.88
2022-08-16T07:14:30.652Z,22.94
2022-08-16T07:16:59.201Z,23.12
2022-08-16T07:19:33.508Z,23.22
2022-08-16T07:22:38.139Z,23.31
2022-08-16T07:25:12.144Z,23.47
2022-08-16T07:27:39.408Z,23.45
2022-08-16T07:30:45.923Z,23.51
2022-08-16T07:32:57.609Z,23.46
2022-08-16T07:35:25.296Z,23.65
2022-08-16T07:37:52.444Z,23.72
2022-08-16T07:40:31.921Z,23.72
2022-08-16T07:43:06.139Z,23.54
2022-08-16T07:45:34.758Z,23.66
2022-08-16T07:48:11.479Z,23.69
2022-08-16T07:50:57.730Z,23.84
2022-08-16T07:53:28.802Z,24.11
2022-08-16T07:55:56.519Z,23.97
2022-08-16T07:58:33.913Z,24.06
2022-08-16T08:01:10.069Z,23.94
2022-08-16T08:03:39.317Z,24.02
2022-08-16T08:06:10.238Z,23.90
2022-08-16T08:08:50.777Z,24.17
2022-08-16T08:11:19.595Z,24.26
2022-08-16T08:13:47.951Z,24.27
2022-08-16T08:16:18.542Z,24.14
2022-08-16T08:18:50.322Z,24.41
2022-08-16T08:21:26.386Z,24.31
2022-08-16T08:23:56.491Z,24.52
2022-08-16T08:26:24.350Z,24.57
2022-08-16T08:28:51.491Z,24.88
2022-08-16T08:31:18.554Z,24.82
2022-08-16T08:33:51.301Z,24.71
2022-08-16T08:36:33.558Z,24.84
2022-08-16T08:39:00.727Z,24.63
2022-08-16T08:41:29.435Z,24.84
2022-08-16T08:43:57.937Z,24.81
2022-08-16T08:46:25.464Z,24.95
2022-08-16T08:48:59.886Z,25.17
2022-08-16T08:51:35.916Z,25.12
2022-08-16T08:54:09.509Z,25.07
2022-08-16T08:56:37.775Z,25.05
2022-08-16T08:59:20.176Z,25.32
2022-08-16T09:01:56.557Z,25.26
2022-08-16T09:04:26.989Z,25.65
2022-08-16T09:06:54.433Z,25.59
2022-08-16T09:09:22.130Z,25.51
2022-08-16T09:11:53.450Z,25.62
2022-08-16T09:14:49.686Z,25.66
2022-08-16T09:20:16.622Z,25.90
2022-08-16T09:22:44.064Z,25.92
2022-08-16T09:25:23.040Z,25.89
2022-08-16T09:27:58.081Z,26.39
2022-08-16T09:30:33.642Z,26.39
2022-08-16T09:33:06.754Z,26.65
2022-08-16T09:35:38.632Z,26.71
2022-08-16T09:38:08.362Z,26.77
2022-08-16T09:40:43.269Z,27.03
2022-08-16T09:43:46.323Z,27.03
2022-08-16T09:46:00.013Z,27.11
2022-08-16T09:48:36.955Z,27.11
2022-08-16T09:51:13.917Z,27.35
2022-08-16T09:53:41.101Z,27.55
2022-08-16T09:56:26.571Z,27.41
2022-08-16T09:59:03.935Z,27.55
2022-08-16T10:01:36.471Z,27.59
2022-08-16T10:04:29.981Z,27.77
2022-08-16T10:06:55.642Z,27.79
2022-08-16T10:09:25.226Z,27.83
2022-08-16T10:12:11.564Z,27.82
2022-08-16T10:14:46.220Z,27.99
2022-08-16T10:17:13.242Z,28.06
2022-08-16T10:19:39.787Z,28.28
2022-08-16T10:22:06.316Z,28.27
2022-08-16T10:24:33.705Z,28.38
2022-08-16T10:27:25.602Z,28.39
2022-08-16T10:30:00.556Z,28.61
2022-08-16T10:32:33.073Z,28.91
2022-08-16T10:35:00.349Z,28.96
2022-08-16T10:37:32.557Z,28.91
2022-08-16T10:40:04.700Z,28.99
2022-08-16T10:42:31.296Z,29.20
2022-08-16T10:44:57.829Z,29.23
2022-08-16T10:47:24.454Z,29.51
2022-08-16T10:49:51.615Z,29.50
2022-08-16T10:52:20.073Z,29.67
2022-08-16T10:57:34.984Z,29.83
2022-08-16T11:00:06.545Z,30.13
2022-08-16T11:02:58.007Z,30.24
2022-08-16T11:05:58.664Z,30.21
2022-08-16T11:08:16.384Z,30.18
2022-08-16T11:11:05.217Z,30.10
2022-08-16T11:17:00.741Z,30.68
2022-08-16T11:19:12.573Z,30.89
2022-08-16T11:24:42.019Z,30.46
2022-08-16T11:27:23.612Z,30.94
2022-08-16T11:29:55.091Z,31.15
2022-08-16T11:32:32.443Z,31.28
2022-08-16T11:35:13.824Z,31.37
2022-08-16T11:40:38.810Z,31.13
2022-08-16T11:43:10.098Z,31.16
2022-08-16T11:45:37.722Z,31.27
2022-08-16T11:48:05.082Z,31.31
2022-08-16T11:50:33.822Z,30.82
2022-08-16T11:53:06.106Z,30.70
2022-08-16T11:55:38.194Z,30.71
2022-08-16T11:58:07.135Z,30.50
2022-08-16T12:00:51.040Z,30.45
2022-08-16T12:03:24.966Z,30.42
2022-08-16T12:05:58.923Z,30.41
2022-08-16T12:08:27.302Z,30.55
2022-08-16T12:10:54.230Z,31.14
2022-08-16T12:13:26.961Z,31.30
2022-08-16T12:15:53.721Z,31.45
2022-08-16T12:18:21.560Z,31.56
2022-08-16T12:20:48.219Z,31.81
2022-08-16T12:23:15.114Z,31.92
2022-08-16T12:25:44.793Z,32.12
2022-08-16T12:28:12.769Z,32.39
2022-08-16T12:30:44.882Z,32.46
2022-08-16T12:33:25.493Z,32.17
2022-08-16T12:35:53.131Z,31.73
2022-08-16T12:38:41.173Z,31.89
2022-08-16T12:41:06.747Z,31.80
2022-08-16T12:43:34.953Z,31.48
2022-08-16T12:46:02.597Z,31.13
2022-08-16T12:48:50.320Z,30.70
2022-08-16T12:51:24.179Z,30.95
2022-08-16T12:53:58.124Z,31.36
2022-08-16T12:56:28.411Z,31.66
2022-08-16T12:58:57.732Z,32.18
2022-08-16T13:01:28.997Z,32.38
2022-08-16T13:04:20.389Z,32.31
2022-08-16T13:06:45.199Z,32.44
2022-08-16T13:09:21.489Z,32.65
2022-08-16T13:12:01.687Z,32.95
2022-08-16T13:14:38.052Z,33.14
2022-08-16T13:17:09.487Z,32.80
2022-08-16T13:20:06.199Z,32.87
2022-08-16T13:22:25.341Z,32.94
2022-08-16T13:24:53.671Z,32.85
2022-08-16T13:28:01.978Z,32.67
2022-08-16T13:30:21.857Z,32.83
2022-08-16T13:32:55.859Z,33.14
2022-08-16T13:35:23.952Z,33.29
2022-08-16T13:37:52.217Z,33.37
2022-08-16T13:40:21.220Z,33.53
2022-08-16T13:42:49.618Z,33.33
2022-08-16T13:45:17.115Z,33.57
2022-08-16T13:47:46.105Z,33.66
2022-08-16T13:50:17.387Z,33.54
2022-08-16T13:52:58.726Z,33.66
2022-08-16T13:55:25.385Z,33.57
2022-08-16T13:58:37.757Z,33.56
2022-08-16T14:00:42.344Z,33.56
2022-08-16T14:03:09.322Z,33.96
2022-08-16T14:05:37.643Z,34.15
2022-08-16T14:08:04.205Z,34.25
2022-08-16T14:10:32.338Z,34.23
2022-08-16T14:13:00.950Z,34.39
2022-08-16T14:15:29.202Z,34.23
2022-08-16T14:18:23.345Z,34.25
2022-08-16T14:20:48.645Z,34.09
2022-08-16T14:23:23.663Z,33.99
2022-08-16T14:25:54.280Z,33.57
2022-08-16T14:28:21.928Z,33.86
2022-08-16T14:30:50.707Z,34.16
2022-08-16T14:33:18.710Z,34.45
2022-08-16T14:35:48.840Z,34.50
2022-08-16T14:38:24.038Z,34.44
2022-08-16T14:40:55.504Z,34.07
2022-08-16T14:43:24.860Z,33.98
2022-08-16T14:45:51.626Z,34.17
2022-08-16T14:48:25.902Z,34.26
2022-08-16T14:50:54.154Z,34.05
2022-08-16T14:53:22.915Z,33.95
2022-08-16T14:55:49.535Z,33.82
2022-08-16T14:58:18.894Z,33.92
2022-08-16T15:00:47.778Z,34.08
2022-08-16T15:03:21.724Z,34.08
2022-08-16T15:05:49.790Z,33.69
2022-08-16T15:08:21.379Z,33.82
2022-08-16T15:11:03.637Z,33.73
2022-08-16T15:13:30.169Z,33.55
2022-08-16T15:16:02.275Z,33.45
2022-08-16T15:18:31.778Z,33.12
2022-08-16T15:20:59.946Z,33.29
2022-08-16T15:23:28.361Z,33.47
2022-08-16T15:26:02.998Z,33.66
2022-08-16T15:28:32.671Z,33.57
2022-08-16T15:31:05.988Z,33.33
2022-08-16T15:33:43.594Z,33.17
2022-08-16T15:36:18.075Z,32.89
2022-08-16T15:39:02.360Z,33.07
2022-08-16T15:41:43.052Z,33.02
2022-08-16T15:44:21.142Z,32.87
2022-08-16T15:46:58.968Z,32.66
2022-08-16T15:49:34.762Z,32.59
2022-08-16T15:52:12.097Z,32.75
2022-08-16T15:54:51.492Z,32.50
2022-08-16T15:57:19.760Z,32.29
2022-08-16T15:59:52.434Z,31.89
2022-08-16T16:02:29.348Z,31.48
2022-08-16T16:05:00.936Z,31.46
2022-08-16T16:07:30.307Z,31.26
2022-08-16T16:09:58.900Z,31.18
2022-08-16T16:12:51.019Z,31.28
2022-08-16T16:15:17.657Z,31.07
2022-08-16T16:17:44.193Z,31.15
2022-08-16T16:20:18.240Z,30.77
2022-08-16T16:22:46.628Z,30.68
2022-08-16T16:25:15.842Z,30.68
2022-08-16T16:27:44.185Z,30.10
2022-08-16T16:30:37.440Z,30.07
2022-08-16T16:33:01.729Z,29.71
2022-08-16T16:35:32.739Z,30.26
2022-08-16T16:37:59.978Z,30.25
2022-08-16T16:40:32.554Z,30.56
2022-08-16T16:43:00.063Z,30.31
2022-08-16T16:45:34.716Z,30.55
2022-08-16T16:48:12.275Z,30.28
2022-08-16T16:50:44.450Z,30.12
2022-08-16T16:53:16.778Z,30.22
2022-08-16T16:55:51.878Z,30.44
2022-08-16T16:58:43.383Z,30.19
2022-08-16T17:01:20.436Z,30.32
2022-08-16T17:03:53.671Z,30.10
2022-08-16T17:06:20.775Z,29.86
2022-08-16T17:08:47.649Z,30.12
2022-08-16T17:11:16.064Z,30.21
2022-08-16T17:13:44.661Z,30.40
2022-08-16T17:16:17.121Z,30.47
2022-08-16T17:19:16.626Z,30.20
2022-08-16T17:21:34.383Z,30.41
2022-08-16T17:24:18.322Z,29.86
2022-08-16T17:26:48.755Z,30.08
2022-08-16T17:29:15.851Z,30.05
2022-08-16T17:31:43.508Z,30.17
2022-08-16T17:34:29.224Z,30.25
2022-08-16T17:37:00.623Z,30.09
2022-08-16T17:39:32.863Z,29.92
2022-08-16T17:42:02.034Z,29.98
2022-08-16T17:44:28.753Z,29.99
2022-08-16T17:46:55.236Z,29.95
2022-08-16T17:49:22.499Z,29.86
2022-08-16T17:51:49.065Z,29.99
2022-08-16T17:54:21.411Z,29.99
2022-08-16T17:57:00.490Z,29.96
2022-08-16T17:59:28.444Z,29.76
2022-08-16T18:01:56.239Z,29.70
2022-08-16T18:04:48.913Z,29.75
2022-08-16T18:07:10.742Z,29.83
2022-08-16T18:09:41.019Z,29.76
2022-08-16T18:12:45.055Z,29.81
2022-08-16T18:15:07.622Z,29.82
2022-08-16T18:17:34.427Z,29.79
2022-08-16T18:20:01.030Z,29.72
2022-08-16T18:22:30.959Z,29.53
2022-08-16T18:24:58.410Z,29.52
2022-08-16T18:27:27.247Z,29.45
2022-08-16T18:29:54.339Z,29.44
2022-08-16T18:32:23.162Z,29.42
2022-08-16T18:34:52.775Z,29.37
2022-08-16T18:37:21.587Z,29.26
2022-08-16T18:39:48.177Z,29.21
2022-08-16T18:42:14.913Z,29.11
2022-08-16T18:44:44.123Z,29.02
2022-08-16T18:47:11.193Z,28.94
2022-08-16T18:49:37.799Z,28.77
2022-08-16T18:52:04.942Z,28.79
2022-08-16T18:54:33.654Z,28.73
2022-08-16T18:57:03.487Z,28.60
2022-08-16T18:59:33.214Z,28.48
2022-08-16T19:02:04.334Z,28.43
2022-08-16T19:04:56.838Z,28.27
2022-08-16T19:07:30.473Z,28.15
2022-08-16T19:09:58.207Z,28.09
2022-08-16T19:12:37.758Z,27.92
2022-08-16T19:15:14.417Z,27.87
2022-08-16T19:17:44.004Z,27.88
2022-08-16T19:20:11.760Z,27.86
2022-08-16T19:23:02.138Z,27.87
2022-08-16T19:25:46.770Z,27.78
2022-08-16T19:28:33.327Z,27.59
2022-08-16T19:31:05.722Z,27.60
2022-08-16T19:33:32.673Z,27.57
2022-08-16T19:35:59.696Z,27.44
2022-08-16T19:38:27.691Z,27.38
2022-08-16T19:40:54.298Z,27.40
2022-08-16T19:43:21.998Z,27.34
2022-08-16T19:45:49.193Z,26.99
2022-08-16T19:48:15.725Z,26.74
2022-08-16T19:50:42.279Z,26.88
2022-08-16T19:53:19.281Z,26.92
2022-08-16T19:55:47.330Z,26.84
2022-08-16T19:58:15.477Z,26.84
2022-08-16T20:00:43.514Z,26.83
2022-08-16T20:03:16.014Z,26.84
2022-08-16T20:05:43.825Z,26.76
2022-08-16T20:08:11.531Z,26.73
2022-08-16T20:10:40.861Z,26.68
2022-08-16T20:13:12.987Z,26.65
2022-08-16T20:15:40.958Z,26.54
2022-08-16T20:18:17.237Z,26.42
2022-08-16T20:20:51.617Z,25.96
2022-08-16T20:23:24.802Z,26.02
2022-08-16T20:25:55.856Z,26.12
2022-08-16T20:28:40.633Z,26.13
2022-08-16T20:31:11.466Z,26.13
2022-08-16T20:33:38.008Z,26.17
2022-08-16T20:36:04.559Z,25.99
2022-08-16T20:38:31.165Z,26.00
2022-08-16T20:40:57.828Z,25.41
2022-08-16T20:43:24.377Z,25.56
2022-08-16T20:45:50.852Z,25.05
2022-08-16T20:48:17.340Z,24.98
2022-08-16T20:50:45.032Z,25.18
2022-08-16T20:53:11.850Z,25.20
2022-08-16T20:55:40.066Z,25.13
2022-08-16T20:58:06.633Z,24.89
2022-08-16T21:00:33.626Z,24.87
2022-08-16T21:03:01.364Z,24.48
2022-08-16T21:05:31.761Z,24.55
2022-08-16T21:07:58.433Z,24.62
2022-08-16T21:10:24.989Z,24.78
2022-08-16T21:13:02.855Z,24.76
2022-08-16T21:15:32.758Z,24.62
2022-08-16T21:17:59.945Z,24.67
2022-08-16T21:20:28.010Z,24.73
2022-08-16T21:23:03.504Z,24.66
2022-08-16T21:25:34.858Z,24.64
2022-08-16T21:28:38.990Z,24.36
2022-08-16T21:30:50.101Z,24.24
2022-08-16T21:33:18.553Z,24.31
2022-08-16T21:35:47.037Z,24.21
2022-08-16T21:38:28.696Z,24.19
2022-08-16T21:40:57.186Z,24.14
2022-08-16T21:43:25.349Z,24.20
2022-08-16T21:45:56.014Z,24.11
2022-08-16T21:48:34.683Z,24.00
2022-08-16T21:51:08.320Z,24.08
2022-08-16T21:53:35.365Z,23.96
2022-08-16T21:56:02.792Z,23.69
2022-08-16T21:58:30.756Z,23.49
2022-08-16T22:00:57.547Z,23.03
2022-08-16T22:03:24.359Z,23.20
2022-08-16T22:05:59.931Z,23.41
2022-08-16T22:08:46.733Z,23.14
2022-08-16T22:11:18.362Z,23.45
2022-08-16T22:13:56.457Z,23.61
2022-08-16T22:16:27.046Z,23.55
2022-08-16T22:18:53.697Z,23.54
2022-08-16T22:21:20.438Z,23.53
2022-08-16T22:23:57.735Z,23.57
2022-08-16T22:26:32.080Z,23.85
2022-08-16T22:29:04.522Z,23.09
2022-08-16T22:31:31.365Z,23.09
2022-08-16T22:33:58.570Z,23.27
2022-08-16T22:36:28.438Z,23.41
2022-08-16T22:39:01.324Z,23.51
2022-08-16T22:41:31.740Z,23.28
2022-08-16T22:43:59.478Z,23.34
2022-08-16T22:46:26.069Z,22.67
2022-08-16T22:48:52.907Z,22.40
2022-08-16T22:51:22.159Z,22.36
2022-08-16T22:53:48.770Z,22.15
2022-08-16T22:56:18.223Z,22.46
2022-08-16T22:58:46.241Z,22.70
2022-08-16T23:01:13.745Z,22.59
2022-08-16T23:03:40.948Z,22.10
2022-08-16T23:06:08.693Z,22.22
2022-08-16T23:08:39.205Z,22.29
2022-08-16T23:11:10.407Z,22.38
2022-08-16T23:13:38.044Z,22.17
2022-08-16T23:16:21.415Z,22.14
2022-08-16T23:18:49.552Z,21.44
2022-08-16T23:21:17.586Z,21.45
2022-08-16T23:23:47.224Z,21.77
2022-08-16T23:26:46.369Z,21.92
2022-08-16T23:29:04.309Z,21.85
2022-08-16T23:31:32.471Z,21.52
2022-08-16T23:33:59.878Z,21.38
2022-08-16T23:36:26.423Z,21.45
2022-08-16T23:38:53.013Z,21.71
2022-08-16T23:41:20.034Z,21.68
2022-08-16T23:43:46.533Z,21.76
2022-08-16T23:46:19.413Z,21.93
2022-08-16T23:49:59.451Z,22.04
2022-08-16T23:51:33.203Z,22.08
2022-08-16T23:54:00.609Z,22.08
2022-08-16T23:56:27.115Z,22.08
2022-08-16T23:59:02.281Z,22.24
